createdAt,value
2023-08-18T05:49:01.083Z,1000.96
2023-08-18T05:50:02.005Z,1000.96
2023-08-18T05:51:01.951Z,1000.96
2023-08-18T05:52:01.952Z,1000.95
2023-08-18T05:53:01.965Z,1000.92
2023-08-18T05:54:01.957Z,1000.89
2023-08-18T05:55:01.916Z,1000.86
2023-08-18T05:56:01.894Z,1000.86
2023-08-18T05:57:01.886Z,1000.85
2023-08-18T05:58:01.922Z,1000.85
2023-08-18T05:59:01.861Z,1000.84
2023-08-18T06:00:01.873Z,1000.83
2023-08-18T06:01:01.857Z,1000.83
2023-08-18T06:02:01.851Z,1000.81
2023-08-18T06:03:01.869Z,1000.79
2023-08-18T06:04:01.862Z,1000.77
2023-08-18T06:05:01.812Z,1000.76
2023-08-18T06:06:04.986Z,1000.73
2023-08-18T06:07:01.791Z,1000.75
2023-08-18T06:08:01.784Z,1000.72
2023-08-18T06:09:01.762Z,1000.71
2023-08-18T06:10:01.746Z,1000.71
2023-08-18T06:11:01.760Z,1000.71
2023-08-18T06:12:01.734Z,1000.71
2023-08-18T06:13:01.702Z,1000.69
2023-08-18T06:14:01.688Z,1000.69
2023-08-18T06:15:01.685Z,1000.70
2023-08-18T06:16:01.700Z,1000.70
2023-08-18T06:17:01.725Z,1000.69
2023-08-18T06:18:01.796Z,1000.72
2023-08-18T06:19:01.631Z,1000.75
2023-08-18T06:20:01.662Z,1000.74
2023-08-18T06:21:01.623Z,1000.72
2023-08-18T06:22:01.655Z,1000.71
2023-08-18T06:23:01.618Z,1000.72
2023-08-18T06:24:01.591Z,1000.72
2023-08-18T06:25:01.587Z,1000.71
2023-08-18T06:26:01.589Z,1000.74
2023-08-18T06:27:01.624Z,1000.74
2023-08-18T06:28:01.620Z,1000.79
2023-08-18T06:29:01.545Z,1000.81
2023-08-18T06:30:01.563Z,1000.85
